Time;durP1;ratioP1;P1;durP2;ratioP2;P2;SDS_P1;SDS_P2;PMS_P1;PMS_P2;Temp;Humidity;BMP_temperature;BMP_pressure;BME280_temperature;BME280_humidity;BME280_pressure;Samples;Min_cycle;Max_cycle;Signal;HPM_P1;HPM_P2
2022/05/11 00:01:11;;;;;;;7.37;4.73;;;;;;;12.83;100.00;62169.09;5091341;28;20248;-72
2022/05/11 00:03:38;;;;;;;12.47;4.30;;;;;;;12.73;100.00;62166.56;5091474;28;20199;-72
2022/05/11 00:06:05;;;;;;;7.67;4.00;;;;;;;12.76;100.00;62166.16;5092592;28;20204;-72
2022/05/11 00:08:32;;;;;;;6.43;4.30;;;;;;;12.74;100.00;62164.53;5092754;28;20195;-73
2022/05/11 00:11:01;;;;;;;6.40;4.10;;;;;;;12.73;100.00;62160.91;5091040;28;20702;-73
2022/05/11 00:13:29;;;;;;;4.40;3.80;;;;;;;12.85;100.00;62175.81;5091485;28;20200;-72
2022/05/11 00:15:56;;;;;;;7.17;4.27;;;;;;;12.86;100.00;62179.44;5090896;28;20227;-72
2022/05/11 00:18:23;;;;;;;8.00;4.23;;;;;;;13.06;100.00;62198.91;5091262;28;20200;-72
2022/05/11 00:20:49;;;;;;;6.50;4.00;;;;;;;12.89;100.00;62177.53;5091300;28;20643;-72
2022/05/11 00:23:16;;;;;;;4.43;3.83;;;;;;;12.65;100.00;62150.31;5091230;28;20666;-71
2022/05/11 00:25:45;;;;;;;5.37;4.00;;;;;;;12.70;100.00;62160.78;5091338;28;20666;-72
2022/05/11 00:28:14;;;;;;;6.77;3.73;;;;;;;12.69;100.00;62156.59;5091169;28;20220;-73
2022/05/11 00:30:43;;;;;;;5.77;3.50;;;;;;;12.63;100.00;62155.81;5091300;28;20200;-72
2022/05/11 00:33:12;;;;;;;7.90;3.27;;;;;;;12.57;100.00;62141.72;5091583;28;20200;-72
2022/05/11 00:35:39;;;;;;;4.73;3.43;;;;;;;12.56;100.00;62145.75;5091147;28;20236;-72
2022/05/11 00:38:06;;;;;;;6.33;3.27;;;;;;;12.53;100.00;62134.88;5091226;28;20200;-72
2022/05/11 00:40:34;;;;;;;4.77;3.30;;;;;;;12.50;100.00;62139.28;5091649;28;20192;-71
2022/05/11 00:43:01;;;;;;;5.73;3.93;;;;;;;12.46;100.00;62135.00;5090995;28;20523;-72
2022/05/11 00:45:30;;;;;;;5.67;3.87;;;;;;;12.36;100.00;62121.19;5091104;28;20207;-71
2022/05/11 00:48:00;;;;;;;7.27;3.77;;;;;;;12.23;100.00;62107.78;5091307;28;20204;-72
2022/05/11 00:50:32;;;;;;;4.63;3.80;;;;;;;12.14;100.00;62100.66;5091273;28;20196;-73
2022/05/11 00:53:09;;;;;;;7.07;3.90;;;;;;;12.23;100.00;62110.34;5088918;28;20287;-72
2022/05/11 00:55:41;;;;;;;9.10;4.20;;;;;;;12.30;100.00;62114.75;5086199;28;20230;-71
2022/05/11 00:58:12;;;;;;;6.70;4.40;;;;;;;12.22;100.00;62106.69;5090639;28;20589;-73
2022/05/11 01:00:43;;;;;;;7.17;4.30;;;;;;;12.24;100.00;62108.84;5093619;28;20200;-72
2022/05/11 01:03:13;;;;;;;12.73;4.67;;;;;;;12.23;100.00;62112.88;5094440;28;20249;-72
2022/05/11 01:05:41;;;;;;;6.93;4.63;;;;;;;11.98;100.00;62080.41;5094419;28;20203;-72
2022/05/11 01:08:10;;;;;;;5.93;4.90;;;;;;;11.95;100.00;62077.75;5094381;28;20207;-71
2022/05/11 01:10:37;;;;;;;7.17;4.80;;;;;;;11.86;100.00;62073.19;5094417;28;20246;-72
2022/05/11 01:13:09;;;;;;;6.33;5.00;;;;;;;11.82;100.00;62069.44;5074238;28;20204;-72
2022/05/11 01:15:38;;;;;;;12.17;5.70;;;;;;;11.85;100.00;62067.00;5074308;28;20228;-71
2022/05/11 01:18:09;;;;;;;8.50;4.97;;;;;;;11.75;100.00;62056.28;5073794;28;20207;-72
2022/05/11 01:20:37;;;;;;;7.33;5.10;;;;;;;11.85;100.00;62067.00;5074222;28;20196;-73
2022/05/11 01:23:11;;;;;;;10.27;5.00;;;;;;;11.84;100.00;62068.47;5073754;28;20633;-72
2022/05/11 01:25:39;;;;;;;9.30;4.80;;;;;;;11.78;100.00;62059.50;5073792;28;20204;-72
2022/05/11 01:28:11;;;;;;;8.70;4.67;;;;;;;11.73;100.00;62056.69;5077092;28;20269;-71
2022/05/11 01:30:39;;;;;;;7.50;4.87;;;;;;;11.74;100.00;62055.19;5094037;28;20685;-72
2022/05/11 01:33:07;;;;;;;7.20;4.90;;;;;;;11.80;100.00;62061.63;5093440;28;20647;-72
2022/05/11 01:35:54;;;;;;;9.03;5.00;;;;;;;11.80;100.00;62061.63;5093994;28;20247;-73
2022/05/11 01:38:35;;;;;;;6.67;4.03;;;;;;;11.75;100.00;62056.28;5093696;28;20239;-72
2022/05/11 01:41:04;;;;;;;5.03;3.60;;;;;;;11.77;100.00;62058.44;5093784;28;20628;-70
2022/05/11 01:43:35;;;;;;;5.07;3.13;;;;;;;11.73;100.00;62059.25;5093625;28;20200;-72
2022/05/11 01:46:02;;;;;;;5.13;3.43;;;;;;;11.73;100.00;62054.66;5093844;28;20192;-72
2022/05/11 01:48:30;;;;;;;5.07;3.50;;;;;;;11.73;100.00;62054.13;5093508;28;20253;-72
2022/05/11 01:50:58;;;;;;;3.60;3.13;;;;;;;11.60;100.00;62040.72;5093420;28;20249;-71
2022/05/11 01:53:26;;;;;;;7.70;3.50;;;;;;;11.56;100.00;62036.41;5093713;28;20249;-72
2022/05/11 01:55:53;;;;;;;3.23;2.93;;;;;;;11.59;100.00;62046.75;5093412;28;20288;-72
2022/05/11 01:58:23;;;;;;;3.87;3.27;;;;;;;11.71;100.00;62054.53;5093345;28;20196;-72
2022/05/11 02:00:50;;;;;;;5.20;3.23;;;;;;;11.69;100.00;62054.94;5093484;28;20658;-73
2022/05/11 02:03:18;;;;;;;5.83;3.70;;;;;;;11.74;100.00;62057.75;5093488;28;20257;-71
2022/05/11 02:08:30;;;;;;;3.50;2.83;;;;;;;11.02;100.00;61979.06;5093680;28;20194;-72
2022/05/11 02:10:58;;;;;;;4.67;3.17;;;;;;;11.50;100.00;62029.44;5092943;28;20195;-72
2022/05/11 02:13:28;;;;;;;4.50;3.27;;;;;;;11.56;100.00;62035.88;5074976;28;20207;-73
2022/05/11 02:15:58;;;;;;;9.10;3.33;;;;;;;11.68;100.00;62051.31;5093046;28;20259;-72
2022/05/11 02:18:28;;;;;;;4.50;3.30;;;;;;;11.36;100.00;62020.06;5093261;28;20643;-71
2022/05/11 02:20:55;;;;;;;4.73;3.70;;;;;;;11.74;100.00;62055.19;5093167;28;20198;-71
2022/05/11 02:23:26;;;;;;;4.10;3.47;;;;;;;11.76;100.00;62057.34;5092951;28;20252;-72
2022/05/11 02:25:54;;;;;;;6.73;3.40;;;;;;;11.74;100.00;62057.75;5093080;28;20226;-73
2022/05/11 02:28:22;;;;;;;5.43;3.47;;;;;;;11.83;100.00;62065.38;5093224;28;20288;-73
2022/05/11 02:30:53;;;;;;;5.63;3.67;;;;;;;11.98;100.00;62080.94;5092774;28;20698;-73
2022/05/11 02:33:21;;;;;;;7.97;3.47;;;;;;;11.75;100.00;62061.38;5092749;28;20723;-71
2022/05/11 02:35:49;;;;;;;8.30;3.90;;;;;;;11.54;100.00;62038.84;5092639;28;20277;-71
2022/05/11 02:38:19;;;;;;;6.00;4.10;;;;;;;11.71;100.00;62054.53;5092969;28;20208;-72
2022/05/11 02:40:48;;;;;;;7.53;3.60;;;;;;;11.91;100.00;62073.44;5092829;28;20200;-72
2022/05/11 02:43:15;;;;;;;8.33;4.33;;;;;;;11.88;100.00;62070.22;5092946;28;20256;-71
2022/05/11 02:45:43;;;;;;;8.90;4.33;;;;;;;11.89;100.00;62071.31;5092372;28;20203;-72
2022/05/11 02:48:15;;;;;;;7.23;3.90;;;;;;;11.78;100.00;62062.03;5092362;28;20199;-72
2022/05/11 02:50:44;;;;;;;6.87;4.27;;;;;;;11.85;100.00;62074.66;5092516;28;20245;-71
2022/05/11 02:53:12;;;;;;;10.10;5.00;;;;;;;11.99;100.00;62084.59;5092157;28;20272;-73
2022/05/11 02:55:40;;;;;;;11.03;5.10;;;;;;;11.93;100.00;62080.69;5092201;28;20280;-72
2022/05/11 02:58:08;;;;;;;10.33;5.60;;;;;;;11.73;100.00;62054.13;5092306;28;20196;-71
2022/05/11 03:00:36;;;;;;;16.23;6.47;;;;;;;11.78;100.00;62059.50;5092233;28;20253;-73
2022/05/11 03:03:04;;;;;;;21.47;9.10;;;;;;;11.95;100.00;62077.75;5091899;28;20241;-72
2022/05/11 03:05:32;;;;;;;12.83;6.30;;;;;;;11.94;100.00;62074.09;5092255;28;20213;-73
2022/05/11 03:08:00;;;;;;;10.90;5.60;;;;;;;11.86;100.00;62068.06;5092051;28;20260;-73
2022/05/11 03:10:27;;;;;;;11.67;5.80;;;;;;;11.24;100.00;62002.09;5092041;28;20244;-72
2022/05/11 03:12:54;;;;;;;8.67;6.03;;;;;;;11.60;100.00;62045.28;5091999;28;20195;-72
2022/05/11 03:15:22;;;;;;;14.17;6.00;;;;;;;11.84;100.00;62066.47;5091857;28;20223;-71
2022/05/11 03:17:49;;;;;;;15.10;6.83;;;;;;;12.05;100.00;62088.47;5091755;28;20535;-72
2022/05/11 03:20:18;;;;;;;14.47;6.47;;;;;;;11.67;100.00;62052.81;5092016;28;20700;-71
2022/05/11 03:22:46;;;;;;;9.00;6.07;;;;;;;12.17;100.00;62100.78;5091395;28;20207;-71
2022/05/11 03:25:13;;;;;;;12.73;6.80;;;;;;;12.20;100.00;62104.53;5091674;28;20249;-72
2022/05/11 03:27:39;;;;;;;11.20;6.07;;;;;;;12.13;100.00;62101.63;5091743;28;20216;-72
2022/05/11 03:30:07;;;;;;;8.13;6.07;;;;;;;12.39;100.00;62119.28;5091656;28;20199;-71
2022/05/11 03:35:18;;;;;;;4.87;3.53;;;;;;;12.24;100.00;62111.41;5091909;28;20272;-71
2022/05/11 03:37:46;;;;;;;8.90;4.00;;;;;;;12.15;100.00;62103.75;5091960;28;20200;-72
2022/05/11 03:40:13;;;;;;;5.90;3.23;;;;;;;12.18;100.00;62099.31;5091770;28;20202;-73
2022/05/11 03:42:41;;;;;;;4.17;3.30;;;;;;;10.97;100.00;61973.69;5091645;28;20204;-72
2022/05/11 03:45:10;;;;;;;6.97;3.60;;;;;;;11.36;100.00;62012.44;5092733;28;20195;-74
2022/05/11 03:47:37;;;;;;;6.27;3.50;;;;;;;11.68;100.00;62051.31;5093357;28;20208;-73
2022/05/11 03:50:04;;;;;;;6.17;3.50;;;;;;;11.67;100.00;62045.16;5091508;28;20633;-72
2022/05/11 03:52:31;;;;;;;4.30;3.30;;;;;;;11.81;100.00;62063.25;5091484;28;20210;-73
2022/05/11 03:55:00;;;;;;;8.57;3.50;;;;;;;11.82;100.00;62066.34;5091195;28;20204;-73
2022/05/11 03:57:28;;;;;;;5.33;3.40;;;;;;;11.82;100.00;62063.78;5091395;28;20656;-73
2022/05/11 03:59:55;;;;;;;6.80;3.37;;;;;;;11.81;100.00;62060.69;5091257;28;20204;-72
2022/05/11 04:02:22;;;;;;;6.40;4.00;;;;;;;11.85;100.00;62072.63;5091744;28;20195;-72
2022/05/11 04:04:50;;;;;;;8.03;3.73;;;;;;;11.88;100.00;62070.22;5091314;28;20195;-72
2022/05/11 04:07:18;;;;;;;5.67;3.93;;;;;;;11.86;100.00;62068.06;5091257;28;20200;-73
2022/05/11 04:09:45;;;;;;;7.40;4.30;;;;;;;11.84;100.00;62065.94;5091344;28;20199;-71
2022/05/11 04:12:15;;;;;;;8.80;4.60;;;;;;;11.78;100.00;62059.50;5091293;28;20191;-72
2022/05/11 04:14:42;;;;;;;7.03;4.03;;;;;;;11.80;100.00;62064.19;5090996;28;20294;-73
2022/05/11 04:17:09;;;;;;;8.03;4.17;;;;;;;11.95;100.00;62082.31;5091054;28;20223;-72
2022/05/11 04:19:38;;;;;;;7.43;4.27;;;;;;;11.97;100.00;62079.88;5091159;28;20196;-72
2022/05/11 04:22:06;;;;;;;10.43;4.93;;;;;;;11.93;100.00;62078.16;5091182;28;20208;-73
2022/05/11 04:24:32;;;;;;;21.17;6.20;;;;;;;12.02;100.00;62090.34;5091323;28;20207;-73
2022/05/11 04:27:00;;;;;;;12.87;5.00;;;;;;;12.28;100.00;62113.13;5091099;28;20196;-73
2022/05/11 04:29:28;;;;;;;12.70;4.27;;;;;;;12.48;100.00;62137.16;5090848;28;20227;-72
2022/05/11 04:31:56;;;;;;;7.00;4.43;;;;;;;12.06;100.00;62089.53;5090802;28;20196;-73
2022/05/11 04:34:23;;;;;;;9.17;5.07;;;;;;;13.06;100.00;62195.81;5092343;28;20200;-72
2022/05/11 04:36:53;;;;;;;12.27;5.67;;;;;;;13.42;100.00;62232.44;5095029;28;20241;-72
2022/05/11 04:39:20;;;;;;;11.37;6.60;;;;;;;13.51;100.00;62244.16;5094886;28;20662;-73
2022/05/11 04:41:47;;;;;;;13.13;6.63;;;;;;;13.74;100.00;62268.34;5094854;28;20272;-73
2022/05/11 04:44:14;;;;;;;11.67;6.33;;;;;;;13.88;100.00;62283.91;5094660;28;20192;-72
2022/05/11 04:46:42;;;;;;;12.77;7.90;;;;;;;14.05;100.00;62304.75;5094688;28;20226;-73
2022/05/11 04:49:19;;;;;;;15.47;7.10;;;;;;;13.97;100.00;62293.59;5095614;28;20680;-73
2022/05/11 04:51:47;;;;;;;12.83;6.80;;;;;;;14.17;100.00;62309.97;5095512;28;20196;-71
2022/05/11 04:54:14;;;;;;;13.10;6.90;;;;;;;14.43;100.00;62339.44;5094105;28;20207;-72
2022/05/11 04:56:42;;;;;;;17.27;6.67;;;;;;;14.37;100.00;62336.59;5094595;28;20700;-73
2022/05/11 04:59:09;;;;;;;10.87;6.13;;;;;;;14.43;100.00;62342.00;5094549;28;20227;-74
2022/05/11 05:01:36;;;;;;;9.53;5.83;;;;;;;14.18;100.00;62318.72;5094253;28;20206;-72
2022/05/11 05:04:05;;;;;;;10.77;5.57;;;;;;;14.21;100.00;62321.41;5094338;28;20196;-72
2022/05/11 05:06:33;;;;;;;13.97;5.33;;;;;;;14.37;100.00;62334.03;5094178;28;20204;-73
2022/05/11 05:09:01;;;;;;;18.60;5.70;;;;;;;14.74;100.00;62378.44;5094186;28;20646;-72
2022/05/11 05:11:28;;;;;;;33.63;7.23;;;;;;;14.92;100.00;62397.78;5094263;28;20272;-72
2022/05/11 05:13:55;;;;;;;16.10;5.57;;;;;;;14.53;100.00;62355.84;5094077;28;20727;-73
2022/05/11 05:16:22;;;;;;;7.13;5.13;;;;;;;15.22;100.00;62426.97;5094037;28;20231;-71
2022/05/11 05:18:49;;;;;;;9.50;5.57;;;;;;;15.57;100.00;62464.69;5093977;28;20731;-73
2022/05/11 05:21:17;;;;;;;11.00;5.57;;;;;;;15.96;100.00;62508.69;5094049;28;20196;-73
2022/05/11 05:23:46;;;;;;;11.90;5.73;;;;;;;16.11;100.00;62521.72;5094240;28;20225;-73
2022/05/11 05:26:13;;;;;;;15.30;5.17;;;;;;;15.86;100.00;62495.34;5093809;28;20242;-72
2022/05/11 05:31:28;;;;;;;13.33;5.97;;;;;;;15.21;100.00;62431.03;5094079;28;20618;-71
2022/05/11 05:33:59;;;;;;;14.47;6.13;;;;;;;15.33;100.00;62438.81;5093839;28;20199;-72
2022/05/11 05:36:28;;;;;;;13.83;5.57;;;;;;;15.96;100.00;62511.78;5093592;28;20706;-71
2022/05/11 05:38:56;;;;;;;13.27;6.47;;;;;;;16.32;100.00;62541.78;5093723;28;20282;-71
2022/05/11 05:41:23;;;;;;;14.40;5.63;;;;;;;16.55;100.00;62569.16;5093664;28;20248;-73
2022/05/11 05:43:50;;;;;;;9.90;5.63;;;;;;;16.53;100.00;62572.16;5093893;28;20195;-72
2022/05/11 05:46:17;;;;;;;15.03;6.00;;;;;;;16.28;100.00;62542.63;5093319;28;20196;-72
2022/05/11 05:48:44;;;;;;;16.73;6.27;;;;;;;16.57;100.00;62571.31;5093435;28;20698;-72
2022/05/11 05:51:13;;;;;;;21.10;6.37;;;;;;;16.84;100.00;62597.84;5093491;28;20268;-73
2022/05/11 05:53:42;;;;;;;16.60;7.37;;;;;;;17.00;100.00;62617.66;5093296;28;20249;-73
2022/05/11 05:56:11;;;;;;;19.23;7.77;;;;;;;17.20;100.00;62639.22;5093440;28;20726;-73
2022/05/11 05:58:38;;;;;;;15.43;7.07;;;;;;;17.53;100.00;62674.81;5093372;28;20202;-73
2022/05/11 06:01:06;;;;;;;18.77;7.53;;;;;;;17.86;100.00;62709.88;5093164;28;20196;-72
2022/05/11 06:03:35;;;;;;;21.83;7.50;;;;;;;17.78;100.00;62701.25;5093160;28;20196;-72
2022/05/11 06:06:03;;;;;;;15.93;7.07;;;;;;;17.63;100.00;62680.47;5093031;28;20211;-73
2022/05/11 06:08:30;;;;;;;24.10;7.87;;;;;;;17.31;100.00;62645.94;5093258;28;20675;-72
2022/05/11 06:10:58;;;;;;;17.97;7.80;;;;;;;18.13;100.00;62741.06;5092915;28;20206;-72
2022/05/11 06:13:26;;;;;;;15.97;7.53;;;;;;;18.45;100.00;62770.47;5093204;28;20204;-72
2022/05/11 06:15:55;;;;;;;19.23;7.57;;;;;;;18.38;100.00;62765.47;5092681;28;20239;-71
2022/05/11 06:18:23;;;;;;;27.40;7.87;;;;;;;18.72;100.00;62797.03;5092825;28;20268;-73
2022/05/11 06:20:51;;;;;;;17.20;7.53;;;;;;;18.76;100.00;62803.91;5092704;28;20252;-73
2022/05/11 06:23:18;;;;;;;17.47;8.10;;;;;;;18.95;100.00;62827.03;5093191;28;20272;-71
2022/05/11 06:25:46;;;;;;;22.03;9.20;;;;;;;18.83;100.00;62811.50;5092645;28;20254;-72
2022/05/11 06:28:14;;;;;;;23.70;8.83;;;;;;;18.77;100.00;62807.59;5092595;28;20265;-72
2022/05/11 06:30:40;;;;;;;21.67;8.17;;;;;;;18.74;100.00;62801.75;5092503;28;20200;-71
2022/05/11 06:33:07;;;;;;;15.23;7.67;;;;;;;19.05;100.00;62837.84;5091273;28;20207;-72
2022/05/11 06:35:34;;;;;;;24.70;8.57;;;;;;;19.28;100.00;62862.66;5092642;28;20199;-72
2022/05/11 06:38:03;;;;;;;17.20;8.60;;;;;;;19.60;100.00;62896.72;5092426;28;20693;-73
2022/05/11 06:40:30;;;;;;;13.97;8.03;;;;;;;19.61;100.00;62897.81;5092422;28;20195;-74
2022/05/11 06:42:58;;;;;;;16.87;8.63;;;;;;;19.50;100.00;62887.97;5092534;28;20200;-74
2022/05/11 06:45:26;;;;;;;16.63;7.73;;;;;;;19.68;100.00;62910.00;5092179;28;20344;-74
2022/05/11 06:47:54;;;;;;;11.30;8.03;;;;;;;19.63;100.00;62899.41;5092167;28;20612;-73
2022/05/11 06:50:24;;;;;;;32.70;9.23;;;;;;;19.88;100.00;62929.03;5092640;28;20257;-72
2022/05/11 06:52:51;;;;;;;14.23;8.00;;;;;;;20.29;100.00;62970.78;5092654;28;20196;-71
2022/05/11 07:00:48;;;;;;;19.83;8.40;;;;;;;20.57;100.00;63000.53;5092495;28;20195;-72
2022/05/11 07:03:15;;;;;;;14.60;8.03;;;;;;;20.38;100.00;62977.94;5092074;28;20214;-71
2022/05/11 07:05:43;;;;;;;18.37;8.43;;;;;;;20.51;100.00;62992.00;5091760;28;20264;-73
2022/05/11 07:08:09;;;;;;;17.97;8.30;;;;;;;20.51;100.00;62996.63;5091869;28;20199;-72
2022/05/11 07:10:38;;;;;;;13.37;8.50;;;;;;;20.85;100.00;63031.34;5091698;28;20222;-73
2022/05/11 07:13:05;;;;;;;16.20;7.80;;;;;;;20.96;100.00;63040.13;5091658;28;20728;-71
2022/05/11 07:15:32;;;;;;;14.97;8.57;;;;;;;20.82;100.00;63028.13;5091758;28;20595;-72
2022/05/11 07:18:03;;;;;;;18.40;8.33;;;;;;;20.85;100.00;63031.34;5092088;28;20235;-74
2022/05/11 07:20:34;;;;;;;16.50;7.30;;;;;;;21.10;100.00;63057.34;5092154;28;20222;-72
2022/05/11 07:23:01;;;;;;;19.73;7.03;;;;;;;20.97;100.00;63044.34;5091523;28;20634;-72
2022/05/11 07:25:28;;;;;;;16.83;7.77;;;;;;;21.23;100.00;63074.00;5091472;28;20282;-73
2022/05/11 07:27:57;;;;;;;13.73;7.10;;;;;;;21.30;100.00;63079.00;5091741;28;20219;-73
2022/05/11 07:30:27;;;;;;;12.97;6.93;;;;;;;21.46;100.00;63096.31;5091577;28;20200;-72
2022/05/11 07:32:54;;;;;;;10.60;6.60;;;;;;;21.77;100.00;63129.88;5091489;28;20235;-72
2022/05/11 07:35:22;;;;;;;12.43;6.10;;;;;;;21.61;100.00;63109.97;5091525;28;20616;-72
2022/05/11 07:37:50;;;;;;;13.40;5.63;;;;;;;21.46;100.00;63091.13;5091271;28;20312;-73
2022/05/11 07:40:20;;;;;;;11.13;6.47;;;;;;;21.46;100.00;63091.13;5091695;28;20196;-73
2022/05/11 07:42:47;;;;;;;9.80;5.57;;;;;;;21.46;100.00;63096.31;5091712;28;20249;-72
2022/05/11 07:45:16;;;;;;;12.97;5.30;;;;;;;22.02;100.00;63156.97;5091470;28;20191;-72
2022/05/11 07:47:45;;;;;;;9.47;5.77;;;;;;;22.11;100.00;63166.72;5091604;28;20203;-72
2022/05/11 07:50:15;;;;;;;14.13;5.87;;;;;;;22.47;100.00;63203.13;5091298;28;20253;-71
2022/05/11 07:52:44;;;;;;;10.30;4.87;;;;;;;22.35;100.00;63192.72;5091345;28;20254;-71
2022/05/11 07:55:12;;;;;;;8.47;4.40;;;;;;;22.12;100.00;63167.25;5091252;28;20196;-73
2022/05/11 08:00:25;;;;;;;8.40;4.30;;;;;;;22.86;100.00;63247.44;5091410;28;20292;-73
2022/05/11 08:02:53;;;;;;;9.33;5.40;;;;;;;22.48;100.00;63206.78;5090899;28;20195;-73
2022/05/11 08:05:21;;;;;;;10.30;4.53;;;;;;;22.40;100.00;63192.94;5091122;28;20200;-72
2022/05/11 08:07:52;;;;;;;7.20;4.70;;;;;;;22.65;100.00;63225.25;5091349;28;20668;-73
2022/05/11 08:10:26;;;;;;;10.23;4.47;;;;;;;23.00;100.00;63260.00;5095263;28;20199;-71
2022/05/11 08:12:53;;;;;;;7.90;3.87;;;;;;;23.25;100.00;63287.13;5095178;28;20199;-72
2022/05/11 08:15:22;;;;;;;10.80;4.20;;;;;;;23.28;100.00;63289.84;5095054;28;20739;-73
2022/05/11 08:17:50;;;;;;;7.83;3.87;;;;;;;23.37;100.00;63302.75;5095236;28;20284;-74
2022/05/11 08:20:18;;;;;;;7.20;4.27;;;;;;;23.50;100.00;63318.91;5095282;28;20199;-74
2022/05/11 08:22:46;;;;;;;9.97;3.90;;;;;;;23.56;100.00;63325.41;5095138;28;20200;-72
2022/05/11 08:25:19;;;;;;;5.80;3.70;;;;;;;23.37;100.00;63299.59;5094979;28;20199;-72
2022/05/11 08:27:46;;;;;;;6.50;3.37;;;;;;;23.58;100.00;63325.00;5094800;28;20222;-73
2022/05/11 08:35:45;;;;;;;14.37;3.90;;;;;;;23.67;100.00;63334.19;5094956;28;20235;-73
2022/05/11 08:38:13;;;;;;;5.57;3.43;;;;;;;23.85;100.00;63354.25;5094556;28;20231;-72
2022/05/11 08:40:48;;;;;;;17.03;3.50;;;;;;;23.90;100.00;63361.75;5094752;28;20199;-72
2022/05/11 08:43:17;;;;;;;4.10;3.30;;;;;;;24.09;100.00;63382.94;5095062;28;20195;-72
2022/05/11 08:45:50;;;;;;;9.10;3.93;;;;;;;24.41;100.00;63413.97;5094759;28;20588;-73
2022/05/11 08:48:28;;;;;;;6.10;3.57;;;;;;;24.01;98.20;63371.06;5094715;28;20199;-72
2022/05/11 08:50:55;;;;;;;6.17;3.77;;;;;;;24.41;93.58;63411.38;5094740;28;20671;-73
2022/05/11 08:53:34;;;;;;;7.07;3.37;;;;;;;23.95;93.46;63361.97;5094778;28;20254;-71
2022/05/11 08:56:12;;;;;;;6.93;3.37;;;;;;;23.94;99.05;63358.84;5094406;28;20256;-73
2022/05/11 08:58:45;;;;;;;5.97;3.27;;;;;;;24.31;97.09;63401.59;5094332;28;20721;-70
2022/05/11 09:01:19;;;;;;;7.83;3.27;;;;;;;24.53;93.56;63424.91;5094256;28;20192;-72
2022/05/11 09:03:47;;;;;;;7.90;3.20;;;;;;;24.36;88.76;63405.94;5094231;28;20205;-72
2022/05/11 09:06:19;;;;;;;4.53;3.13;;;;;;;24.86;90.59;63460.22;5093964;28;20200;-72
2022/05/11 09:08:46;;;;;;;9.07;3.50;;;;;;;24.94;84.18;63468.91;5094033;28;20193;-72
2022/05/11 09:11:24;;;;;;;4.40;3.63;;;;;;;24.55;82.48;63429.69;5093852;28;20199;-72
2022/05/11 09:13:50;;;;;;;7.47;3.80;;;;;;;24.53;87.85;63427.53;5093983;28;20256;-73
2022/05/11 09:16:23;;;;;;;11.10;3.37;;;;;;;24.65;91.50;63434.81;5094177;28;20229;-72
2022/05/11 09:18:50;;;;;;;4.30;3.20;;;;;;;24.82;84.16;63455.88;5094046;28;20227;-73
2022/05/11 09:21:31;;;;;;;9.60;3.33;;;;;;;25.11;87.26;63490.00;5093096;28;20193;-72
2022/05/11 09:24:24;;;;;;;8.57;3.40;;;;;;;25.70;77.33;63553.53;5093774;28;20196;-73
2022/05/11 09:27:07;;;;;;;4.70;3.03;;;;;;;26.13;73.55;63594.53;5094043;28;20278;-73
2022/05/11 09:29:37;;;;;;;4.43;2.70;;;;;;;26.07;65.60;63593.22;5093894;28;20227;-73
2022/05/11 09:32:23;;;;;;;4.70;2.70;;;;;;;25.76;70.77;63560.59;5093476;28;20195;-72
2022/05/11 09:34:50;;;;;;;3.30;2.57;;;;;;;26.08;64.68;63594.31;5093498;28;20217;-73
2022/05/11 09:37:35;;;;;;;4.30;2.30;;;;;;;26.19;63.60;63606.25;5093360;28;20243;-72
2022/05/11 09:40:11;;;;;;;3.93;2.53;;;;;;;26.37;59.40;63625.84;5092875;28;20200;-72
2022/05/11 09:42:52;;;;;;;4.10;2.60;;;;;;;26.19;60.39;63603.66;5093413;28;20199;-74
2022/05/11 09:45:39;;;;;;;4.37;2.87;;;;;;;26.12;64.49;63598.66;5092872;28;20202;-73
2022/05/11 09:48:13;;;;;;;6.00;3.00;;;;;;;25.62;61.83;63548.00;5093479;28;20199;-73
2022/05/11 09:50:41;;;;;;;5.13;2.80;;;;;;;25.50;68.05;63531.81;5093536;28;20198;-74
2022/05/11 09:53:31;;;;;;;4.90;3.10;;;;;;;25.77;67.40;63561.69;5093271;28;20209;-73
2022/05/11 09:56:13;;;;;;;2.93;2.63;;;;;;;25.12;58.92;63483.25;5090177;28;20247;-73
2022/05/11 09:58:42;;;;;;;5.17;2.77;;;;;;;25.34;63.88;63511.78;5093314;28;20235;-73
2022/05/11 10:01:12;;;;;;;3.37;2.57;;;;;;;25.65;61.72;63548.13;5092575;28;20206;-72
2022/05/11 10:03:47;;;;;;;3.33;2.80;;;;;;;25.75;59.66;63553.75;5074833;28;20209;-72
2022/05/11 10:06:18;;;;;;;5.20;2.67;;;;;;;26.41;58.08;63630.19;5093381;28;20440;-73
2022/05/11 10:08:48;;;;;;;3.97;2.80;;;;;;;26.57;54.65;63642.34;5093171;28;20763;-73
2022/05/11 10:11:21;;;;;;;4.43;2.60;;;;;;;27.21;51.46;63716.66;5093315;28;20196;-72
2022/05/11 10:14:00;;;;;;;4.43;2.43;;;;;;;27.15;52.83;63713.28;5093295;28;20246;-73
2022/05/11 10:22:16;;;;;;;6.20;2.30;;;;;;;26.27;52.81;63617.56;5092935;28;20236;-72
2022/05/11 10:25:01;;;;;;;6.70;2.60;;;;;;;25.75;53.25;63556.38;5092708;28;20653;-71
2022/05/11 10:27:40;;;;;;;3.57;2.40;;;;;;;25.65;57.38;63551.28;5092303;28;20199;-72
2022/05/11 10:30:17;;;;;;;3.63;2.67;;;;;;;26.45;55.26;63634.53;5092626;28;20332;-73
2022/05/11 10:33:09;;;;;;;7.50;2.20;;;;;;;26.97;54.65;63687.94;5092369;28;20294;-74
2022/05/11 10:35:47;;;;;;;4.00;2.67;;;;;;;27.34;50.36;63731.38;5092614;28;20199;-72
2022/05/11 10:38:29;;;;;;;4.40;2.57;;;;;;;27.43;50.00;63741.16;5092254;28;20266;-73
2022/05/11 10:41:01;;;;;;;6.47;2.70;;;;;;;27.59;50.13;63761.19;5092413;28;20196;-72
2022/05/11 10:43:41;;;;;;;5.50;3.53;;;;;;;27.50;49.02;63745.63;5092435;28;20200;-72
2022/05/11 10:46:14;;;;;;;7.97;2.57;;;;;;;27.44;49.13;63742.25;5092074;28;20199;-73
2022/05/11 10:48:56;;;;;;;5.63;2.60;;;;;;;27.21;50.24;63722.44;5092025;28;20254;-71
2022/05/11 10:51:42;;;;;;;9.93;2.57;;;;;;;27.52;51.82;63745.72;5091996;28;20252;-72
2022/05/11 10:54:18;;;;;;;5.17;2.50;;;;;;;27.92;48.57;63788.16;5091932;28;20203;-72
2022/05/11 10:56:56;;;;;;;3.30;2.43;;;;;;;27.89;51.01;63790.16;5092328;28;20197;-72
2022/05/11 10:59:46;;;;;;;3.63;3.00;;;;;;;28.08;49.74;63810.84;5091958;28;20314;-73
2022/05/11 11:02:46;;;;;;;3.90;2.87;;;;;;;27.74;47.68;63773.81;5088665;28;20237;-71
2022/05/11 11:05:21;;;;;;;3.30;2.47;;;;;;;27.30;49.87;63727.00;5092052;28;20261;-73
2022/05/11 11:07:56;;;;;;;5.13;2.57;;;;;;;27.17;48.46;63707.06;5092025;28;20644;-72
2022/05/11 11:10:30;;;;;;;5.20;2.20;;;;;;;26.68;48.02;63659.56;5091983;28;20198;-72
2022/05/11 11:13:18;;;;;;;5.37;2.57;;;;;;;26.04;63.30;63589.94;5091909;28;20204;-72
2022/05/11 11:15:47;;;;;;;12.23;3.10;;;;;;;24.86;91.66;63468.03;5091746;28;20242;-74
2022/05/11 11:18:26;;;;;;;15.30;3.40;;;;;;;24.33;100.00;63406.38;5091506;28;20223;-73
2022/05/11 11:20:58;;;;;;;11.47;3.27;;;;;;;23.40;100.00;63302.88;5091782;28;20688;-73
2022/05/11 11:23:36;;;;;;;4.97;2.30;;;;;;;22.71;100.00;63230.66;5091517;28;20292;-73
2022/05/11 11:26:06;;;;;;;10.37;3.10;;;;;;;22.72;100.00;63234.88;5091518;28;20219;-72
2022/05/11 11:28:51;;;;;;;5.17;2.53;;;;;;;22.83;100.00;63241.06;5091495;28;20216;-73
2022/05/11 11:31:22;;;;;;;7.63;3.20;;;;;;;22.64;100.00;63221.00;5091471;28;20195;-72
2022/05/11 11:34:29;;;;;;;6.37;2.47;;;;;;;22.62;100.00;63221.97;5091725;28;20584;-73
2022/05/11 11:36:57;;;;;;;3.40;2.27;;;;;;;22.23;100.00;63179.72;5086815;28;20280;-72
2022/05/11 11:39:54;;;;;;;3.43;2.07;;;;;;;21.88;100.00;63141.81;5091359;28;20227;-73
2022/05/11 11:42:40;;;;;;;7.20;2.20;;;;;;;21.82;100.00;63137.91;5091528;28;20192;-72
2022/05/11 11:45:09;;;;;;;4.87;2.10;;;;;;;21.58;100.00;63109.28;5091448;28;20204;-72
2022/05/11 11:47:42;;;;;;;4.13;2.27;;;;;;;21.68;100.00;63122.72;5091773;28;20204;-73
2022/05/11 11:50:47;;;;;;;10.93;2.30;;;;;;;21.60;100.00;63111.47;5091264;28;20701;-73
2022/05/11 11:53:23;;;;;;;10.10;2.23;;;;;;;20.95;100.00;63039.59;5091457;28;20231;-72
2022/05/11 11:55:50;;;;;;;8.10;1.70;;;;;;;20.28;100.00;62972.31;5091365;28;20203;-72
2022/05/11 11:58:31;;;;;;;5.43;2.43;;;;;;;21.25;100.00;63074.13;5090896;28;20266;-73
2022/05/11 12:01:07;;;;;;;2.57;2.00;;;;;;;21.38;100.00;63088.19;5091514;28;20276;-71
2022/05/11 12:03:37;;;;;;;5.93;1.97;;;;;;;21.11;100.00;63058.44;5091493;28;20658;-72
2022/05/11 12:17:33;;;;;;;2.40;1.63;;;;;;;22.31;100.00;63188.38;5091036;28;20692;-74
2022/05/11 12:20:04;;;;;;;6.03;1.67;;;;;;;22.56;100.00;63214.91;5090979;28;20199;-71